createdAt,value
2019-01-04T00:02:06.929Z,3.61
2019-01-04T00:04:36.861Z,3.56
2019-01-04T00:07:06.531Z,3.52
2019-01-04T00:09:36.213Z,3.52
2019-01-04T00:12:05.889Z,3.51
2019-01-04T00:14:35.877Z,3.51
2019-01-04T00:17:05.675Z,3.51
2019-01-04T00:19:35.394Z,3.52
2019-01-04T00:22:06.993Z,3.49
2019-01-04T00:24:36.681Z,3.48
2019-01-04T00:27:06.353Z,3.45
2019-01-04T00:29:36.118Z,3.44
2019-01-04T00:32:05.795Z,3.42
2019-01-04T00:34:35.539Z,3.39
2019-01-04T00:37:05.695Z,3.37
2019-01-04T00:39:35.442Z,3.36
2019-01-04T00:42:05.292Z,3.33
2019-01-04T00:44:34.977Z,3.33
2019-01-04T00:47:05.289Z,3.29
2019-01-04T00:49:35.717Z,3.25
2019-01-04T00:52:05.470Z,3.20
2019-01-04T00:54:35.146Z,3.19
2019-01-04T00:57:47.145Z,3.13
2019-01-04T01:00:49.869Z,3.11
2019-01-04T01:03:50.429Z,3.10
2019-01-04T01:06:47.145Z,3.07
2019-01-04T01:10:03.105Z,3.04
2019-01-04T01:13:08.295Z,3.04
2019-01-04T01:16:13.588Z,3.06
2019-01-04T01:19:30.638Z,3.07
2019-01-04T01:22:38.853Z,3.06
2019-01-04T01:25:52.998Z,3.07
2019-01-04T01:28:51.668Z,3.06
2019-01-04T01:31:57.348Z,3.08
2019-01-04T01:35:11.238Z,3.08
2019-01-04T01:38:23.684Z,3.11
2019-01-04T01:41:36.057Z,3.12
2019-01-04T01:44:42.553Z,3.14
2019-01-04T01:47:39.520Z,3.16
2019-01-04T01:50:55.431Z,3.19
2019-01-04T01:53:39.419Z,3.23
2019-01-04T01:56:09.105Z,3.26
2019-01-04T01:58:38.782Z,3.30
2019-01-04T02:01:08.456Z,3.30
2019-01-04T02:03:38.375Z,3.31
2019-01-04T02:06:08.054Z,3.32
2019-01-04T02:08:38.776Z,3.34
2019-01-04T02:11:08.470Z,3.36
2019-01-04T02:13:38.143Z,3.38
2019-01-04T02:16:07.908Z,3.42
2019-01-04T02:18:37.586Z,3.47
2019-01-04T02:21:07.265Z,3.51
2019-01-04T02:23:36.950Z,3.53
2019-01-04T02:26:06.621Z,3.53
2019-01-04T02:28:36.288Z,3.54
2019-01-04T02:31:05.969Z,3.53
2019-01-04T02:33:35.893Z,3.56
2019-01-04T02:36:05.647Z,3.62
2019-01-04T02:38:35.321Z,3.63
2019-01-04T02:41:05.032Z,3.64
2019-01-04T02:43:34.976Z,3.66
2019-01-04T02:46:05.521Z,3.66
2019-01-04T02:48:35.428Z,3.66
2019-01-04T02:51:05.636Z,3.68
2019-01-04T02:53:35.289Z,3.68
2019-01-04T02:56:05.365Z,3.68
2019-01-04T02:58:35.314Z,3.68
2019-01-04T03:01:05.674Z,3.68
2019-01-04T03:03:35.361Z,3.68
2019-01-04T03:06:05.242Z,3.75
2019-01-04T03:08:34.929Z,3.79
2019-01-04T03:11:04.602Z,3.79
2019-01-04T03:13:34.300Z,3.78
2019-01-04T03:16:04.062Z,3.82
2019-01-04T03:18:33.736Z,3.84
2019-01-04T03:21:03.645Z,3.85
2019-01-04T03:23:33.333Z,3.85
2019-01-04T03:26:03.009Z,3.92
2019-01-04T03:28:32.697Z,3.97
2019-01-04T03:31:02.440Z,3.97
2019-01-04T03:33:32.124Z,4.00
2019-01-04T03:36:01.803Z,3.98
2019-01-04T03:38:31.473Z,4.00
2019-01-04T03:41:01.148Z,4.03
2019-01-04T03:43:30.820Z,4.08
2019-01-04T03:46:00.503Z,4.11
2019-01-04T03:48:30.173Z,4.09
2019-01-04T03:51:00.796Z,4.06
2019-01-04T03:53:30.473Z,4.09
2019-01-04T03:56:00.137Z,4.11
2019-01-04T03:58:29.810Z,4.13
2019-01-04T04:00:59.460Z,4.16
2019-01-04T04:03:29.143Z,4.16
2019-01-04T04:05:58.814Z,4.19
2019-01-04T04:08:28.494Z,4.19
2019-01-04T04:10:58.183Z,4.19
2019-01-04T04:13:27.854Z,4.19
2019-01-04T04:15:57.602Z,4.24
2019-01-04T04:18:27.275Z,4.28
2019-01-04T04:20:56.939Z,4.31
2019-01-04T04:23:26.599Z,4.32
2019-01-04T04:25:57.230Z,4.34
2019-01-04T04:28:27.020Z,4.36
2019-01-04T04:30:56.688Z,4.36
2019-01-04T04:33:26.361Z,4.39
2019-01-04T04:35:56.038Z,4.43
2019-01-04T04:38:25.693Z,4.47
2019-01-04T04:40:55.369Z,4.49
2019-01-04T04:43:25.042Z,4.51
2019-01-04T04:45:54.705Z,4.53
2019-01-04T04:48:24.378Z,4.53
2019-01-04T04:50:54.053Z,4.54
2019-01-04T04:53:23.721Z,4.56
2019-01-04T04:55:53.404Z,4.57
2019-01-04T04:58:23.099Z,4.60
2019-01-04T05:00:52.767Z,4.63
2019-01-04T05:03:22.442Z,4.65
2019-01-04T05:05:52.114Z,4.69
2019-01-04T05:08:21.857Z,4.72
2019-01-04T05:10:51.540Z,4.75
2019-01-04T05:13:21.204Z,4.77
2019-01-04T05:15:50.872Z,4.78
2019-01-04T05:18:20.558Z,4.80
2019-01-04T05:20:50.229Z,4.81
2019-01-04T05:23:19.890Z,4.83
2019-01-04T05:25:49.571Z,4.82
2019-01-04T05:28:19.254Z,4.80
2019-01-04T05:30:48.929Z,4.82
2019-01-04T05:33:18.605Z,4.85
2019-01-04T05:35:48.289Z,4.88
2019-01-04T05:38:17.970Z,4.91
2019-01-04T05:40:47.652Z,4.92
2019-01-04T05:43:17.341Z,4.91
2019-01-04T05:45:47.012Z,4.96
2019-01-04T05:48:16.693Z,4.98
2019-01-04T05:50:46.368Z,5.03
2019-01-04T05:53:16.290Z,5.06
2019-01-04T05:55:45.967Z,5.10
2019-01-04T05:58:15.892Z,5.12
2019-01-04T06:00:45.566Z,5.12
2019-01-04T06:03:15.245Z,5.15
2019-01-04T06:05:45.178Z,5.11
2019-01-04T06:08:14.849Z,5.16
2019-01-04T06:10:44.529Z,5.19
2019-01-04T06:13:14.259Z,5.25
2019-01-04T06:15:43.957Z,5.30
2019-01-04T06:18:13.620Z,5.32
2019-01-04T06:20:43.543Z,5.36
2019-01-04T06:23:13.224Z,5.38
2019-01-04T06:25:42.895Z,5.40
2019-01-04T06:28:12.559Z,5.48
2019-01-04T06:30:42.219Z,5.52
2019-01-04T06:33:11.888Z,5.56
2019-01-04T06:35:41.788Z,5.58
2019-01-04T06:38:11.471Z,5.57
2019-01-04T06:40:41.143Z,5.54
2019-01-04T06:43:10.796Z,5.58
2019-01-04T06:45:40.548Z,5.60
2019-01-04T06:48:10.208Z,5.63
2019-01-04T06:50:39.872Z,5.63
2019-01-04T06:53:09.532Z,5.61
2019-01-04T06:56:00.259Z,5.59
2019-01-04T06:58:29.934Z,5.61
2019-01-04T07:00:59.615Z,5.60
2019-01-04T07:03:29.291Z,5.59
2019-01-04T07:05:58.969Z,5.60
2019-01-04T07:08:28.734Z,5.62
2019-01-04T07:10:58.419Z,5.59
2019-01-04T07:13:28.329Z,5.57
2019-01-04T07:15:58.000Z,5.63
2019-01-04T07:18:27.679Z,5.64
2019-01-04T07:20:57.591Z,5.71
2019-01-04T07:23:27.963Z,5.74
2019-01-04T07:25:57.652Z,5.76
2019-01-04T07:28:27.328Z,5.76
2019-01-04T07:30:57.001Z,5.75
2019-01-04T07:33:26.666Z,5.72
2019-01-04T07:35:56.407Z,5.73
2019-01-04T07:38:26.091Z,5.73
2019-01-04T07:40:55.765Z,5.74
2019-01-04T07:43:26.407Z,5.75
2019-01-04T07:45:56.079Z,5.78
2019-01-04T07:48:25.746Z,5.76
2019-01-04T07:50:55.437Z,5.78
2019-01-04T07:53:25.105Z,5.82
2019-01-04T07:55:54.783Z,5.85
2019-01-04T07:58:24.700Z,5.84
2019-01-04T08:00:54.376Z,5.84
2019-01-04T08:03:25.800Z,5.84
2019-01-04T08:05:58.180Z,5.85
2019-01-04T08:08:27.839Z,5.84
2019-01-04T08:10:57.532Z,5.83
2019-01-04T08:13:27.267Z,5.83
2019-01-04T08:15:56.932Z,5.84
2019-01-04T08:18:26.595Z,5.85
2019-01-04T08:20:56.512Z,5.86
2019-01-04T08:23:26.439Z,5.88
2019-01-04T08:25:56.109Z,5.87
2019-01-04T08:28:30.978Z,5.85
2019-01-04T08:31:01.377Z,5.83
2019-01-04T08:33:31.048Z,5.77
2019-01-04T08:36:00.712Z,5.78
2019-01-04T08:38:30.392Z,5.77
2019-01-04T08:41:00.056Z,5.74
2019-01-04T08:43:29.738Z,5.75
2019-01-04T08:45:59.473Z,5.78
2019-01-04T08:48:29.232Z,5.70
2019-01-04T08:50:58.911Z,5.71
2019-01-04T08:53:54.780Z,5.75
2019-01-04T08:56:25.108Z,5.78
2019-01-04T08:58:54.785Z,5.82
2019-01-04T09:01:24.451Z,5.82
2019-01-04T09:03:54.119Z,5.78
2019-01-04T09:06:23.843Z,5.78
2019-01-04T09:08:53.509Z,5.75
2019-01-04T09:11:23.247Z,5.73
2019-01-04T09:13:54.112Z,5.71
2019-01-04T09:16:23.772Z,5.71
2019-01-04T09:18:53.523Z,5.72
2019-01-04T09:21:23.198Z,5.71
2019-01-04T09:23:53.115Z,5.72
2019-01-04T09:26:22.787Z,5.71
2019-01-04T09:28:52.528Z,5.70
2019-01-04T09:31:22.198Z,5.73
2019-01-04T09:33:51.874Z,5.71
2019-01-04T09:36:21.540Z,5.69
2019-01-04T09:38:52.651Z,5.68
2019-01-04T09:41:30.805Z,5.64
2019-01-04T09:44:00.570Z,5.64
2019-01-04T09:46:31.173Z,5.66
2019-01-04T09:49:00.913Z,5.63
2019-01-04T09:51:30.671Z,5.63
2019-01-04T09:54:00.338Z,5.69
2019-01-04T09:56:30.021Z,5.70
2019-01-04T09:58:59.948Z,5.73
2019-01-04T10:01:29.630Z,5.71
2019-01-04T10:03:59.319Z,5.69
2019-01-04T10:06:28.990Z,5.72
2019-01-04T10:08:58.659Z,5.72
2019-01-04T10:11:28.341Z,5.73
2019-01-04T10:13:58.009Z,5.73
2019-01-04T10:16:27.680Z,5.73
2019-01-04T10:18:57.347Z,5.74
2019-01-04T10:21:27.104Z,5.73
2019-01-04T10:23:56.768Z,5.74
2019-01-04T10:26:26.438Z,5.73
2019-01-04T10:28:56.118Z,5.76
2019-01-04T10:31:25.786Z,5.74
2019-01-04T10:33:55.465Z,5.74
2019-01-04T10:36:25.129Z,5.72
2019-01-04T10:38:55.066Z,5.70
2019-01-04T10:41:24.736Z,5.69
2019-01-04T10:43:54.683Z,5.72
2019-01-04T10:46:24.347Z,5.69
2019-01-04T10:48:54.216Z,5.70
2019-01-04T10:51:23.897Z,5.71
2019-01-04T10:53:53.576Z,5.69
2019-01-04T10:56:23.277Z,5.74
2019-01-04T10:58:52.941Z,5.79
2019-01-04T11:01:22.616Z,5.82
2019-01-04T11:03:52.290Z,5.81
2019-01-04T11:06:22.031Z,5.77
2019-01-04T11:08:51.707Z,5.75
2019-01-04T11:11:21.404Z,5.72
2019-01-04T11:13:51.110Z,5.72
2019-01-04T11:16:20.758Z,5.75
2019-01-04T11:18:50.430Z,5.78
2019-01-04T11:21:20.346Z,5.78
2019-01-04T11:24:35.043Z,5.77
2019-01-04T11:27:23.555Z,5.82
2019-01-04T11:30:27.497Z,5.85
2019-01-04T11:33:43.095Z,5.81
2019-01-04T11:36:40.995Z,5.77
2019-01-04T11:39:23.768Z,5.77
2019-01-04T11:42:05.824Z,5.80
2019-01-04T11:45:11.675Z,5.84
2019-01-04T11:48:12.422Z,5.88
2019-01-04T11:51:12.273Z,5.85
2019-01-04T11:53:42.481Z,5.79
2019-01-04T11:56:12.205Z,5.80
2019-01-04T11:58:42.280Z,5.81
2019-01-04T12:01:12.099Z,5.80
2019-01-04T12:03:43.513Z,5.83
2019-01-04T12:06:13.250Z,5.89
2019-01-04T12:08:42.924Z,5.91
2019-01-04T12:11:12.597Z,5.96
2019-01-04T12:13:42.325Z,5.90
2019-01-04T12:16:12.088Z,5.92
2019-01-04T12:18:41.820Z,5.91
2019-01-04T12:21:11.538Z,5.89
2019-01-04T12:23:41.236Z,5.91
2019-01-04T12:26:10.928Z,5.93
2019-01-04T12:28:40.818Z,5.92
2019-01-04T12:31:10.598Z,5.92
2019-01-04T12:33:40.294Z,5.96
2019-01-04T12:36:10.127Z,5.96
2019-01-04T12:38:39.825Z,5.98
2019-01-04T12:41:09.641Z,5.99
2019-01-04T12:43:39.455Z,5.98
2019-01-04T12:46:09.204Z,5.99
2019-01-04T12:48:39.002Z,6.00
2019-01-04T12:51:08.766Z,6.01
2019-01-04T12:53:38.436Z,5.98
2019-01-04T12:56:09.097Z,5.94
2019-01-04T12:58:39.025Z,5.98
2019-01-04T13:01:08.793Z,6.01
2019-01-04T13:03:38.491Z,5.97
2019-01-04T13:06:08.176Z,5.95
2019-01-04T13:08:38.099Z,5.95
2019-01-04T13:11:08.089Z,5.92
2019-01-04T13:13:38.006Z,5.93
2019-01-04T13:16:07.679Z,5.92
2019-01-04T13:18:37.332Z,5.96
2019-01-04T13:21:07.006Z,5.97
2019-01-04T13:23:36.673Z,5.94
2019-01-04T13:26:06.348Z,5.95
2019-01-04T13:28:36.029Z,5.95
2019-01-04T13:31:05.722Z,5.95
2019-01-04T13:33:35.389Z,5.95
2019-01-04T13:36:06.034Z,5.97
2019-01-04T13:38:35.714Z,5.94
2019-01-04T13:41:05.832Z,5.96
2019-01-04T13:43:35.513Z,6.01
2019-01-04T13:46:05.313Z,6.00
2019-01-04T13:48:34.992Z,5.99
2019-01-04T13:51:05.508Z,5.99
2019-01-04T13:53:35.193Z,5.99
2019-01-04T13:56:05.670Z,5.99
2019-01-04T13:58:35.435Z,6.01
2019-01-04T14:01:05.676Z,6.02
2019-01-04T14:03:35.367Z,6.00
2019-01-04T14:06:05.127Z,5.96
2019-01-04T14:08:34.810Z,5.98
2019-01-04T14:11:04.601Z,6.00
2019-01-04T14:13:34.290Z,6.03
2019-01-04T14:18:57.702Z,5.98
2019-01-04T14:21:27.382Z,5.97
2019-01-04T14:23:57.323Z,5.97
2019-01-04T14:26:27.244Z,5.97
2019-01-04T14:28:56.945Z,5.99
2019-01-04T14:31:26.625Z,6.00
2019-01-04T14:33:56.315Z,5.99
2019-01-04T14:36:25.985Z,6.01
2019-01-04T14:38:55.668Z,6.05
2019-01-04T14:41:25.353Z,6.03
2019-01-04T14:43:55.127Z,6.01
2019-01-04T14:46:25.086Z,6.02
2019-01-04T14:48:54.771Z,6.05
2019-01-04T14:51:24.525Z,6.04
2019-01-04T14:53:54.193Z,6.05
2019-01-04T14:56:23.900Z,6.04
2019-01-04T14:58:53.637Z,6.05
2019-01-04T15:01:23.330Z,6.01
2019-01-04T15:03:54.183Z,6.03
2019-01-04T15:06:24.183Z,6.06
2019-01-04T15:08:53.887Z,6.07
2019-01-04T15:11:23.562Z,6.09
2019-01-04T15:13:53.233Z,6.10
2019-01-04T15:16:22.994Z,6.11
2019-01-04T15:18:53.225Z,6.11
2019-01-04T15:21:23.159Z,6.12
2019-01-04T15:23:52.830Z,6.11
2019-01-04T15:26:22.500Z,6.09
2019-01-04T15:28:52.185Z,6.11
2019-01-04T15:31:22.104Z,6.13
2019-01-04T15:33:51.776Z,6.10
2019-01-04T15:36:21.458Z,6.13
2019-01-04T15:38:51.384Z,6.34
2019-01-04T15:41:21.074Z,6.32
2019-01-04T15:43:50.764Z,6.32
2019-01-04T15:46:20.455Z,6.33
2019-01-04T15:48:50.133Z,6.31
2019-01-04T15:51:19.875Z,6.24
2019-01-04T15:53:49.560Z,6.24
2019-01-04T15:56:19.248Z,6.20
2019-01-04T15:58:48.937Z,6.18
2019-01-04T16:01:18.608Z,6.17
2019-01-04T16:03:48.320Z,6.21
2019-01-04T16:06:18.005Z,6.23
2019-01-04T16:08:47.950Z,6.22
2019-01-04T16:11:17.629Z,6.20
2019-01-04T16:13:47.306Z,6.20
2019-01-04T16:16:16.975Z,6.17
2019-01-04T16:18:46.653Z,6.17
2019-01-04T16:21:16.341Z,6.20
2019-01-04T16:23:46.035Z,6.21
2019-01-04T16:26:15.708Z,6.21
2019-01-04T16:28:45.411Z,6.24
2019-01-04T16:31:15.106Z,6.25
2019-01-04T16:33:44.772Z,6.24
2019-01-04T16:36:14.892Z,6.25
2019-01-04T16:38:45.533Z,6.25
2019-01-04T16:41:15.226Z,6.23
2019-01-04T16:43:44.892Z,6.27
2019-01-04T16:46:14.566Z,6.28
2019-01-04T16:48:44.269Z,6.31
2019-01-04T16:51:13.941Z,6.35
2019-01-04T16:53:43.871Z,6.37
2019-01-04T16:56:13.541Z,6.35
2019-01-04T16:58:43.224Z,6.34
2019-01-04T17:01:13.191Z,6.33
2019-01-04T17:03:42.942Z,6.33
2019-01-04T17:06:12.881Z,6.35
2019-01-04T17:08:42.841Z,6.30
2019-01-04T17:11:12.534Z,6.32
2019-01-04T17:13:42.218Z,6.30
2019-01-04T17:16:11.895Z,6.28
2019-01-04T17:18:41.589Z,6.29
2019-01-04T17:21:11.241Z,6.34
2019-01-04T17:23:41.261Z,6.36
2019-01-04T17:26:11.006Z,6.34
2019-01-04T17:28:40.766Z,6.35
2019-01-04T17:31:10.440Z,6.39
2019-01-04T17:33:40.118Z,6.38
2019-01-04T17:36:09.791Z,6.38
2019-01-04T17:38:39.467Z,6.40
2019-01-04T17:41:09.222Z,6.41
2019-01-04T17:43:39.154Z,6.42
2019-01-04T17:46:08.843Z,6.42
2019-01-04T17:48:38.539Z,6.42
2019-01-04T17:51:08.230Z,6.42
2019-01-04T17:53:37.913Z,6.42
2019-01-04T17:56:07.594Z,6.41
2019-01-04T17:58:37.258Z,6.42
2019-01-04T18:01:07.015Z,6.42
2019-01-04T18:03:36.705Z,6.42
2019-01-04T18:06:06.538Z,6.43
2019-01-04T18:08:36.214Z,6.45
2019-01-04T18:11:05.913Z,6.47
2019-01-04T18:13:35.667Z,6.49
2019-01-04T18:16:05.864Z,6.48
2019-01-04T18:18:35.702Z,6.48
2019-01-04T18:21:05.449Z,6.49
2019-01-04T18:23:35.209Z,6.53
2019-01-04T18:26:05.989Z,6.54
2019-01-04T18:28:35.689Z,6.53
2019-01-04T18:31:06.735Z,6.56
2019-01-04T18:33:36.752Z,6.57
2019-01-04T18:36:06.435Z,6.56
2019-01-04T18:38:36.122Z,6.55
2019-01-04T18:41:05.885Z,6.54
2019-01-04T18:43:35.585Z,6.57
2019-01-04T18:46:05.501Z,6.57
2019-01-04T18:48:35.186Z,6.55
2019-01-04T18:51:05.382Z,6.57
2019-01-04T18:53:35.061Z,6.62
2019-01-04T18:56:05.296Z,6.63
2019-01-04T18:58:34.983Z,6.64
2019-01-04T19:01:05.613Z,6.68
2019-01-04T19:03:35.284Z,6.65
2019-01-04T19:06:05.146Z,6.67
2019-01-04T19:08:34.821Z,6.65
2019-01-04T19:11:05.418Z,6.64
2019-01-04T19:13:36.160Z,6.65
2019-01-04T19:16:05.842Z,6.67
2019-01-04T19:18:35.511Z,6.70
2019-01-04T19:21:06.156Z,6.71
2019-01-04T19:23:39.557Z,6.69
2019-01-04T19:26:07.224Z,6.71
2019-01-04T19:28:36.922Z,6.73
2019-01-04T19:31:24.374Z,6.75
2019-01-04T19:33:54.053Z,6.76
2019-01-04T19:36:24.400Z,6.74
2019-01-04T19:38:54.099Z,6.77
2019-01-04T19:41:23.881Z,6.78
2019-01-04T19:43:53.588Z,6.80
2019-01-04T19:46:23.260Z,6.81
2019-01-04T19:48:53.399Z,6.84
2019-01-04T19:51:23.161Z,6.85
2019-01-04T19:53:52.841Z,6.85
2019-01-04T19:56:22.765Z,6.87
2019-01-04T19:58:52.450Z,6.88
2019-01-04T20:01:22.389Z,6.88
2019-01-04T20:03:52.057Z,6.85
2019-01-04T20:07:25.855Z,6.89
2019-01-04T20:10:49.215Z,6.87
2019-01-04T20:14:21.164Z,6.90
2019-01-04T20:17:15.204Z,6.94
2019-01-04T20:20:06.673Z,6.97
2019-01-04T20:22:55.829Z,6.97
2019-01-04T20:25:59.097Z,6.97
2019-01-04T20:28:46.265Z,6.96
2019-01-04T20:31:40.641Z,7.00
2019-01-04T20:34:29.343Z,7.02
2019-01-04T20:37:21.203Z,7.09
2019-01-04T20:40:12.806Z,7.11
2019-01-04T20:42:59.354Z,7.15
2019-01-04T20:45:49.242Z,7.17
2019-01-04T20:48:40.717Z,7.18
2019-01-04T20:51:38.192Z,7.19
2019-01-04T20:54:25.545Z,7.19
2019-01-04T20:57:14.714Z,7.22
2019-01-04T21:00:02.121Z,7.24
2019-01-04T21:02:50.982Z,7.22
2019-01-04T21:05:38.368Z,7.22
2019-01-04T21:08:27.079Z,7.26
2019-01-04T21:11:21.605Z,7.24
2019-01-04T21:14:11.237Z,7.27
2019-01-04T21:17:14.732Z,7.24
2019-01-04T21:19:59.383Z,7.27
2019-01-04T21:22:46.840Z,7.25
2019-01-04T21:25:29.711Z,7.28
2019-01-04T21:28:13.897Z,7.31
2019-01-04T21:31:01.341Z,7.36
2019-01-04T21:33:55.920Z,7.34
2019-01-04T21:36:53.525Z,7.33
2019-01-04T21:39:36.638Z,7.32
2019-01-04T21:42:37.526Z,7.32
2019-01-04T21:45:22.329Z,7.36
2019-01-04T21:48:11.747Z,7.32
2019-01-04T21:50:59.999Z,7.32
2019-01-04T21:53:47.097Z,7.29
2019-01-04T21:56:35.817Z,7.26
2019-01-04T21:59:30.332Z,7.30
2019-01-04T22:02:32.606Z,7.31
2019-01-04T22:05:31.719Z,7.28
2019-01-04T22:08:19.049Z,7.30
2019-01-04T22:11:06.796Z,7.27
2019-01-04T22:14:08.216Z,7.26
2019-01-04T22:17:11.851Z,7.25
2019-01-04T22:20:09.937Z,7.24
2019-01-04T22:23:00.410Z,7.29
2019-01-04T22:26:05.078Z,7.25
2019-01-04T22:28:52.240Z,7.23
2019-01-04T22:31:39.678Z,7.24
2019-01-04T22:34:37.658Z,7.26
2019-01-04T22:37:30.656Z,7.25
2019-01-04T22:40:22.364Z,7.24
2019-01-04T22:43:09.761Z,7.24
2019-01-04T22:46:06.938Z,7.25
2019-01-04T22:48:54.126Z,7.23
2019-01-04T22:51:42.816Z,7.25
2019-01-04T22:54:31.521Z,7.29
2019-01-04T22:57:35.119Z,7.27
2019-01-04T23:00:32.505Z,7.22
2019-01-04T23:03:19.981Z,7.21
2019-01-04T23:06:07.372Z,7.28
2019-01-04T23:08:59.321Z,7.28
2019-01-04T23:11:42.064Z,7.25
2019-01-04T23:14:29.221Z,7.27
2019-01-04T23:17:27.893Z,7.27
2019-01-04T23:20:24.688Z,7.28
2019-01-04T23:23:18.462Z,7.29
2019-01-04T23:26:05.885Z,7.28
2019-01-04T23:28:53.368Z,7.30
2019-01-04T23:31:40.479Z,7.32
2019-01-04T23:34:32.200Z,7.32
2019-01-04T23:37:19.630Z,7.37
2019-01-04T23:40:15.264Z,7.34
2019-01-04T23:43:03.232Z,7.33
2019-01-04T23:45:54.517Z,7.34
2019-01-04T23:48:37.407Z,7.31
2019-01-04T23:51:24.315Z,7.31
2019-01-04T23:54:02.608Z,7.31
2019-01-04T23:56:54.328Z,7.37
2019-01-04T23:59:38.391Z,7.35
